sensor_id;sensor_type;location;lat;lon;timestamp;P1;durP1;ratioP1;P2;durP2;ratioP2
20928;SDS011;21895;47.072;15.132;2022-12-18T00:01:38;16.07;;;5.33;;
20928;SDS011;21895;47.072;15.132;2022-12-18T00:04:06;17.53;;;6.73;;
20928;SDS011;21895;47.072;15.132;2022-12-18T00:06:47;17.30;;;5.70;;
20928;SDS011;21895;47.072;15.132;2022-12-18T00:09:14;19.87;;;5.80;;
20928;SDS011;21895;47.072;15.132;2022-12-18T00:11:41;19.33;;;6.67;;
20928;SDS011;21895;47.072;15.132;2022-12-18T00:14:09;14.70;;;5.43;;
20928;SDS011;21895;47.072;15.132;2022-12-18T00:16:38;17.90;;;6.80;;
20928;SDS011;21895;47.072;15.132;2022-12-18T00:19:05;20.43;;;6.33;;
20928;SDS011;21895;47.072;15.132;2022-12-18T00:21:32;19.97;;;5.87;;
20928;SDS011;21895;47.072;15.132;2022-12-18T00:23:59;15.67;;;5.63;;
20928;SDS011;21895;47.072;15.132;2022-12-18T00:26:30;15.07;;;5.60;;
20928;SDS011;21895;47.072;15.132;2022-12-18T00:28:59;13.80;;;4.90;;
20928;SDS011;21895;47.072;15.132;2022-12-18T00:31:39;16.67;;;5.93;;
20928;SDS011;21895;47.072;15.132;2022-12-18T00:34:09;16.87;;;5.70;;
20928;SDS011;21895;47.072;15.132;2022-12-18T00:36:37;10.73;;;4.60;;
20928;SDS011;21895;47.072;15.132;2022-12-18T00:39:05;12.23;;;4.10;;
20928;SDS011;21895;47.072;15.132;2022-12-18T00:41:32;10.23;;;4.27;;
20928;SDS011;21895;47.072;15.132;2022-12-18T00:44:18;9.27;;;3.83;;
20928;SDS011;21895;47.072;15.132;2022-12-18T00:46:45;13.27;;;4.07;;
20928;SDS011;21895;47.072;15.132;2022-12-18T00:49:14;14.17;;;5.07;;
20928;SDS011;21895;47.072;15.132;2022-12-18T00:51:43;13.90;;;4.93;;
20928;SDS011;21895;47.072;15.132;2022-12-18T00:54:09;14.60;;;5.40;;
20928;SDS011;21895;47.072;15.132;2022-12-18T00:56:37;12.17;;;4.33;;
20928;SDS011;21895;47.072;15.132;2022-12-18T00:59:14;13.57;;;4.30;;
20928;SDS011;21895;47.072;15.132;2022-12-18T01:01:41;16.73;;;5.50;;
20928;SDS011;21895;47.072;15.132;2022-12-18T01:04:08;13.77;;;4.93;;
20928;SDS011;21895;47.072;15.132;2022-12-18T01:06:35;13.83;;;4.73;;
20928;SDS011;21895;47.072;15.132;2022-12-18T01:09:01;11.83;;;4.70;;
20928;SDS011;21895;47.072;15.132;2022-12-18T01:11:28;13.70;;;4.30;;
20928;SDS011;21895;47.072;15.132;2022-12-18T01:13:55;11.13;;;4.40;;
20928;SDS011;21895;47.072;15.132;2022-12-18T01:16:21;11.90;;;4.40;;
20928;SDS011;21895;47.072;15.132;2022-12-18T01:18:50;13.30;;;4.67;;
20928;SDS011;21895;47.072;15.132;2022-12-18T01:21:19;13.20;;;4.97;;
20928;SDS011;21895;47.072;15.132;2022-12-18T01:23:46;15.00;;;5.27;;
20928;SDS011;21895;47.072;15.132;2022-12-18T01:26:18;8.83;;;4.00;;
20928;SDS011;21895;47.072;15.132;2022-12-18T01:28:44;15.07;;;5.17;;
20928;SDS011;21895;47.072;15.132;2022-12-18T01:31:18;16.67;;;4.13;;
20928;SDS011;21895;47.072;15.132;2022-12-18T01:33:51;13.30;;;4.10;;
20928;SDS011;21895;47.072;15.132;2022-12-18T01:36:20;9.40;;;3.73;;
20928;SDS011;21895;47.072;15.132;2022-12-18T01:38:53;10.00;;;3.93;;
20928;SDS011;21895;47.072;15.132;2022-12-18T01:41:21;12.93;;;4.63;;
20928;SDS011;21895;47.072;15.132;2022-12-18T01:48:25;9.13;;;3.63;;
20928;SDS011;21895;47.072;15.132;2022-12-18T01:50:51;14.77;;;4.37;;
20928;SDS011;21895;47.072;15.132;2022-12-18T01:53:21;10.80;;;3.83;;
20928;SDS011;21895;47.072;15.132;2022-12-18T01:55:50;9.50;;;3.57;;
20928;SDS011;21895;47.072;15.132;2022-12-18T01:58:23;9.40;;;3.70;;
20928;SDS011;21895;47.072;15.132;2022-12-18T02:03:15;10.00;;;3.70;;
20928;SDS011;21895;47.072;15.132;2022-12-18T02:05:54;6.17;;;2.87;;
20928;SDS011;21895;47.072;15.132;2022-12-18T02:08:39;9.37;;;3.63;;
20928;SDS011;21895;47.072;15.132;2022-12-18T02:14:54;9.20;;;3.30;;
20928;SDS011;21895;47.072;15.132;2022-12-18T02:17:55;6.53;;;2.87;;
20928;SDS011;21895;47.072;15.132;2022-12-18T02:20:45;8.30;;;3.40;;
20928;SDS011;21895;47.072;15.132;2022-12-18T02:23:34;9.20;;;2.57;;
20928;SDS011;21895;47.072;15.132;2022-12-18T02:27:06;10.20;;;3.33;;
20928;SDS011;21895;47.072;15.132;2022-12-18T02:29:41;6.53;;;2.63;;
20928;SDS011;21895;47.072;15.132;2022-12-18T02:32:27;5.47;;;2.70;;
20928;SDS011;21895;47.072;15.132;2022-12-18T02:35:00;7.20;;;3.00;;
20928;SDS011;21895;47.072;15.132;2022-12-18T02:37:31;10.90;;;3.23;;
20928;SDS011;21895;47.072;15.132;2022-12-18T02:40:00;7.10;;;2.63;;
20928;SDS011;21895;47.072;15.132;2022-12-18T02:42:30;7.87;;;2.80;;
20928;SDS011;21895;47.072;15.132;2022-12-18T02:44:57;11.30;;;3.63;;
20928;SDS011;21895;47.072;15.132;2022-12-18T02:47:26;9.53;;;3.43;;
20928;SDS011;21895;47.072;15.132;2022-12-18T02:53:31;9.97;;;3.33;;
20928;SDS011;21895;47.072;15.132;2022-12-18T02:56:15;7.77;;;3.27;;
20928;SDS011;21895;47.072;15.132;2022-12-18T03:01:55;9.30;;;3.10;;
20928;SDS011;21895;47.072;15.132;2022-12-18T03:06:08;14.10;;;3.37;;
20928;SDS011;21895;47.072;15.132;2022-12-18T03:08:47;9.60;;;3.17;;
20928;SDS011;21895;47.072;15.132;2022-12-18T03:11:20;7.90;;;3.33;;
20928;SDS011;21895;47.072;15.132;2022-12-18T03:14:12;8.07;;;3.37;;
20928;SDS011;21895;47.072;15.132;2022-12-18T03:16:42;6.07;;;2.87;;
20928;SDS011;21895;47.072;15.132;2022-12-18T03:19:14;9.17;;;3.50;;
20928;SDS011;21895;47.072;15.132;2022-12-18T03:21:47;10.53;;;2.87;;
20928;SDS011;21895;47.072;15.132;2022-12-18T03:24:19;9.47;;;2.93;;
20928;SDS011;21895;47.072;15.132;2022-12-18T03:26:51;15.40;;;4.20;;
20928;SDS011;21895;47.072;15.132;2022-12-18T03:29:33;12.10;;;2.73;;
20928;SDS011;21895;47.072;15.132;2022-12-18T03:32:08;8.27;;;3.47;;
20928;SDS011;21895;47.072;15.132;2022-12-18T03:34:55;7.37;;;3.70;;
20928;SDS011;21895;47.072;15.132;2022-12-18T03:37:28;5.60;;;2.80;;
20928;SDS011;21895;47.072;15.132;2022-12-18T03:39:56;9.03;;;3.43;;
20928;SDS011;21895;47.072;15.132;2022-12-18T03:46:30;6.33;;;2.80;;
20928;SDS011;21895;47.072;15.132;2022-12-18T03:53:43;7.03;;;3.17;;
20928;SDS011;21895;47.072;15.132;2022-12-18T03:56:26;12.33;;;3.60;;
20928;SDS011;21895;47.072;15.132;2022-12-18T03:58:58;8.87;;;2.97;;
20928;SDS011;21895;47.072;15.132;2022-12-18T04:01:30;4.73;;;2.60;;
20928;SDS011;21895;47.072;15.132;2022-12-18T04:04:02;7.83;;;3.27;;
20928;SDS011;21895;47.072;15.132;2022-12-18T04:06:31;11.50;;;2.97;;
20928;SDS011;21895;47.072;15.132;2022-12-18T04:09:01;7.80;;;3.10;;
20928;SDS011;21895;47.072;15.132;2022-12-18T04:11:29;8.00;;;3.40;;
20928;SDS011;21895;47.072;15.132;2022-12-18T04:13:56;6.80;;;2.83;;
20928;SDS011;21895;47.072;15.132;2022-12-18T04:16:24;8.60;;;3.50;;
20928;SDS011;21895;47.072;15.132;2022-12-18T04:18:54;10.20;;;3.00;;
20928;SDS011;21895;47.072;15.132;2022-12-18T04:21:21;10.40;;;3.27;;
20928;SDS011;21895;47.072;15.132;2022-12-18T04:23:48;10.97;;;4.13;;
20928;SDS011;21895;47.072;15.132;2022-12-18T04:26:14;11.33;;;3.50;;
20928;SDS011;21895;47.072;15.132;2022-12-18T04:28:41;8.17;;;3.33;;
20928;SDS011;21895;47.072;15.132;2022-12-18T04:31:08;10.17;;;3.60;;
20928;SDS011;21895;47.072;15.132;2022-12-18T04:33:34;10.47;;;3.63;;
20928;SDS011;21895;47.072;15.132;2022-12-18T04:36:01;9.30;;;3.37;;
20928;SDS011;21895;47.072;15.132;2022-12-18T04:38:28;4.77;;;2.43;;
20928;SDS011;21895;47.072;15.132;2022-12-18T04:40:54;7.57;;;3.07;;
20928;SDS011;21895;47.072;15.132;2022-12-18T04:43:21;6.13;;;2.60;;
20928;SDS011;21895;47.072;15.132;2022-12-18T04:45:47;9.57;;;3.57;;
20928;SDS011;21895;47.072;15.132;2022-12-18T04:48:14;8.33;;;3.80;;
20928;SDS011;21895;47.072;15.132;2022-12-18T04:50:40;6.63;;;3.03;;
20928;SDS011;21895;47.072;15.132;2022-12-18T04:53:07;10.60;;;3.17;;
20928;SDS011;21895;47.072;15.132;2022-12-18T04:55:33;7.90;;;2.97;;
20928;SDS011;21895;47.072;15.132;2022-12-18T04:58:00;7.03;;;3.13;;
20928;SDS011;21895;47.072;15.132;2022-12-18T05:00:26;6.73;;;3.23;;
20928;SDS011;21895;47.072;15.132;2022-12-18T05:02:53;7.80;;;3.33;;
20928;SDS011;21895;47.072;15.132;2022-12-18T05:05:20;7.60;;;2.60;;
20928;SDS011;21895;47.072;15.132;2022-12-18T05:07:46;9.20;;;2.70;;
20928;SDS011;21895;47.072;15.132;2022-12-18T05:10:12;8.57;;;2.57;;
20928;SDS011;21895;47.072;15.132;2022-12-18T05:12:39;6.37;;;3.13;;
20928;SDS011;21895;47.072;15.132;2022-12-18T05:15:27;7.87;;;3.00;;
20928;SDS011;21895;47.072;15.132;2022-12-18T05:17:57;9.00;;;3.27;;
20928;SDS011;21895;47.072;15.132;2022-12-18T05:20:25;9.17;;;3.33;;
20928;SDS011;21895;47.072;15.132;2022-12-18T05:22:53;11.23;;;3.40;;
20928;SDS011;21895;47.072;15.132;2022-12-18T05:25:20;4.97;;;2.67;;
20928;SDS011;21895;47.072;15.132;2022-12-18T05:27:47;6.33;;;3.07;;
20928;SDS011;21895;47.072;15.132;2022-12-18T05:30:14;7.07;;;2.77;;
20928;SDS011;21895;47.072;15.132;2022-12-18T05:32:41;7.27;;;2.90;;
20928;SDS011;21895;47.072;15.132;2022-12-18T05:35:09;7.63;;;2.47;;
20928;SDS011;21895;47.072;15.132;2022-12-18T05:37:36;9.43;;;3.23;;
20928;SDS011;21895;47.072;15.132;2022-12-18T05:40:08;11.73;;;3.73;;
20928;SDS011;21895;47.072;15.132;2022-12-18T05:42:36;6.97;;;2.70;;
20928;SDS011;21895;47.072;15.132;2022-12-18T05:45:02;6.37;;;2.83;;
20928;SDS011;21895;47.072;15.132;2022-12-18T05:47:30;6.50;;;3.13;;
20928;SDS011;21895;47.072;15.132;2022-12-18T05:49:57;7.03;;;2.83;;
20928;SDS011;21895;47.072;15.132;2022-12-18T05:52:23;5.03;;;2.60;;
20928;SDS011;21895;47.072;15.132;2022-12-18T05:54:50;13.67;;;4.40;;
20928;SDS011;21895;47.072;15.132;2022-12-18T05:57:19;9.87;;;3.83;;
20928;SDS011;21895;47.072;15.132;2022-12-18T05:59:45;12.27;;;3.53;;
20928;SDS011;21895;47.072;15.132;2022-12-18T06:02:12;7.00;;;2.93;;
20928;SDS011;21895;47.072;15.132;2022-12-18T06:04:38;13.67;;;3.30;;
20928;SDS011;21895;47.072;15.132;2022-12-18T06:07:05;14.97;;;3.67;;
20928;SDS011;21895;47.072;15.132;2022-12-18T06:09:31;13.90;;;3.73;;
20928;SDS011;21895;47.072;15.132;2022-12-18T06:11:58;7.30;;;2.83;;
20928;SDS011;21895;47.072;15.132;2022-12-18T06:14:24;11.53;;;3.57;;
20928;SDS011;21895;47.072;15.132;2022-12-18T06:16:51;13.13;;;4.00;;
20928;SDS011;21895;47.072;15.132;2022-12-18T06:19:17;7.73;;;3.23;;
20928;SDS011;21895;47.072;15.132;2022-12-18T06:21:44;11.50;;;3.00;;
20928;SDS011;21895;47.072;15.132;2022-12-18T06:24:10;12.67;;;3.67;;
20928;SDS011;21895;47.072;15.132;2022-12-18T06:26:38;11.67;;;3.63;;
20928;SDS011;21895;47.072;15.132;2022-12-18T06:29:05;27.17;;;7.80;;
20928;SDS011;21895;47.072;15.132;2022-12-18T06:31:31;11.73;;;4.60;;
20928;SDS011;21895;47.072;15.132;2022-12-18T06:33:58;7.07;;;3.07;;
20928;SDS011;21895;47.072;15.132;2022-12-18T06:36:28;6.33;;;2.83;;
20928;SDS011;21895;47.072;15.132;2022-12-18T06:38:54;6.87;;;2.90;;
20928;SDS011;21895;47.072;15.132;2022-12-18T06:41:22;6.23;;;2.63;;
20928;SDS011;21895;47.072;15.132;2022-12-18T06:43:48;16.37;;;3.27;;
20928;SDS011;21895;47.072;15.132;2022-12-18T06:46:15;8.07;;;3.33;;
20928;SDS011;21895;47.072;15.132;2022-12-18T06:48:42;10.90;;;3.33;;
20928;SDS011;21895;47.072;15.132;2022-12-18T06:51:15;9.07;;;3.10;;
20928;SDS011;21895;47.072;15.132;2022-12-18T06:53:49;5.97;;;2.50;;
20928;SDS011;21895;47.072;15.132;2022-12-18T06:56:15;10.10;;;3.40;;
20928;SDS011;21895;47.072;15.132;2022-12-18T06:58:42;10.10;;;3.17;;
20928;SDS011;21895;47.072;15.132;2022-12-18T07:01:10;6.73;;;3.33;;
20928;SDS011;21895;47.072;15.132;2022-12-18T07:03:39;13.57;;;3.43;;
20928;SDS011;21895;47.072;15.132;2022-12-18T07:06:16;11.03;;;3.33;;
20928;SDS011;21895;47.072;15.132;2022-12-18T07:08:45;6.83;;;2.47;;
20928;SDS011;21895;47.072;15.132;2022-12-18T07:11:13;9.83;;;3.30;;
20928;SDS011;21895;47.072;15.132;2022-12-18T07:13:41;9.50;;;3.60;;
20928;SDS011;21895;47.072;15.132;2022-12-18T07:16:09;8.27;;;3.33;;
20928;SDS011;21895;47.072;15.132;2022-12-18T07:18:51;7.80;;;3.20;;
20928;SDS011;21895;47.072;15.132;2022-12-18T07:21:19;11.27;;;3.07;;
20928;SDS011;21895;47.072;15.132;2022-12-18T07:23:47;12.57;;;3.97;;
20928;SDS011;21895;47.072;15.132;2022-12-18T07:26:15;9.07;;;3.70;;
20928;SDS011;21895;47.072;15.132;2022-12-18T07:28:45;9.03;;;3.20;;
20928;SDS011;21895;47.072;15.132;2022-12-18T07:31:12;8.80;;;3.03;;
20928;SDS011;21895;47.072;15.132;2022-12-18T07:33:47;7.73;;;3.50;;
20928;SDS011;21895;47.072;15.132;2022-12-18T07:36:14;6.77;;;3.20;;
20928;SDS011;21895;47.072;15.132;2022-12-18T07:38:41;7.03;;;3.30;;
20928;SDS011;21895;47.072;15.132;2022-12-18T07:41:09;9.37;;;3.17;;
20928;SDS011;21895;47.072;15.132;2022-12-18T07:43:39;5.30;;;2.93;;
20928;SDS011;21895;47.072;15.132;2022-12-18T07:46:08;8.20;;;3.40;;
20928;SDS011;21895;47.072;15.132;2022-12-18T07:48:39;7.67;;;2.93;;
20928;SDS011;21895;47.072;15.132;2022-12-18T07:51:07;8.27;;;3.67;;
20928;SDS011;21895;47.072;15.132;2022-12-18T07:53:34;7.03;;;2.83;;
20928;SDS011;21895;47.072;15.132;2022-12-18T07:56:04;8.87;;;3.77;;
20928;SDS011;21895;47.072;15.132;2022-12-18T07:59:04;9.20;;;3.43;;
20928;SDS011;21895;47.072;15.132;2022-12-18T08:01:30;14.70;;;4.57;;
20928;SDS011;21895;47.072;15.132;2022-12-18T08:03:57;11.73;;;4.27;;
20928;SDS011;21895;47.072;15.132;2022-12-18T08:06:24;19.40;;;6.37;;
20928;SDS011;21895;47.072;15.132;2022-12-18T08:08:54;30.13;;;7.33;;
20928;SDS011;21895;47.072;15.132;2022-12-18T08:11:21;16.57;;;6.10;;
20928;SDS011;21895;47.072;15.132;2022-12-18T08:13:50;17.63;;;7.30;;
20928;SDS011;21895;47.072;15.132;2022-12-18T08:16:17;21.63;;;7.30;;
20928;SDS011;21895;47.072;15.132;2022-12-18T08:18:46;17.73;;;6.67;;
20928;SDS011;21895;47.072;15.132;2022-12-18T08:21:20;20.13;;;6.70;;
20928;SDS011;21895;47.072;15.132;2022-12-18T08:23:52;17.03;;;7.07;;
20928;SDS011;21895;47.072;15.132;2022-12-18T08:26:21;17.90;;;6.90;;
20928;SDS011;21895;47.072;15.132;2022-12-18T08:28:50;23.17;;;6.80;;
20928;SDS011;21895;47.072;15.132;2022-12-18T08:31:19;19.33;;;6.53;;
20928;SDS011;21895;47.072;15.132;2022-12-18T08:33:50;16.57;;;5.63;;
20928;SDS011;21895;47.072;15.132;2022-12-18T08:36:19;11.33;;;5.17;;
20928;SDS011;21895;47.072;15.132;2022-12-18T08:38:46;19.97;;;6.03;;
20928;SDS011;21895;47.072;15.132;2022-12-18T08:41:13;17.43;;;6.50;;
20928;SDS011;21895;47.072;15.132;2022-12-18T08:43:42;17.07;;;6.03;;
20928;SDS011;21895;47.072;15.132;2022-12-18T08:46:31;15.90;;;6.53;;
20928;SDS011;21895;47.072;15.132;2022-12-18T08:49:02;18.70;;;6.87;;
20928;SDS011;21895;47.072;15.132;2022-12-18T08:51:30;17.77;;;6.03;;
20928;SDS011;21895;47.072;15.132;2022-12-18T08:53:57;12.57;;;5.43;;
20928;SDS011;21895;47.072;15.132;2022-12-18T08:56:24;13.97;;;5.50;;
20928;SDS011;21895;47.072;15.132;2022-12-18T08:58:51;11.70;;;4.97;;
20928;SDS011;21895;47.072;15.132;2022-12-18T09:01:19;11.63;;;5.23;;
20928;SDS011;21895;47.072;15.132;2022-12-18T09:03:46;14.80;;;6.67;;
20928;SDS011;21895;47.072;15.132;2022-12-18T09:06:17;23.53;;;6.43;;
20928;SDS011;21895;47.072;15.132;2022-12-18T09:08:47;19.30;;;7.53;;
20928;SDS011;21895;47.072;15.132;2022-12-18T09:11:17;19.27;;;7.87;;
20928;SDS011;21895;47.072;15.132;2022-12-18T09:13:49;18.67;;;7.00;;
20928;SDS011;21895;47.072;15.132;2022-12-18T09:16:16;18.87;;;7.63;;
20928;SDS011;21895;47.072;15.132;2022-12-18T09:18:45;16.97;;;6.77;;
20928;SDS011;21895;47.072;15.132;2022-12-18T09:21:21;20.10;;;7.70;;
20928;SDS011;21895;47.072;15.132;2022-12-18T09:23:51;17.50;;;6.30;;
20928;SDS011;21895;47.072;15.132;2022-12-18T09:26:20;25.10;;;7.33;;
20928;SDS011;21895;47.072;15.132;2022-12-18T09:28:47;18.57;;;6.53;;
20928;SDS011;21895;47.072;15.132;2022-12-18T09:31:14;15.17;;;6.27;;
20928;SDS011;21895;47.072;15.132;2022-12-18T09:33:43;13.97;;;6.27;;
20928;SDS011;21895;47.072;15.132;2022-12-18T09:36:11;13.30;;;6.23;;
20928;SDS011;21895;47.072;15.132;2022-12-18T09:38:41;14.03;;;6.10;;
20928;SDS011;21895;47.072;15.132;2022-12-18T09:45:37;12.83;;;5.60;;
20928;SDS011;21895;47.072;15.132;2022-12-18T09:48:15;16.57;;;6.33;;
20928;SDS011;21895;47.072;15.132;2022-12-18T09:50:51;19.23;;;7.00;;
20928;SDS011;21895;47.072;15.132;2022-12-18T09:53:29;25.43;;;7.60;;
20928;SDS011;21895;47.072;15.132;2022-12-18T09:56:00;21.73;;;8.20;;
20928;SDS011;21895;47.072;15.132;2022-12-18T09:58:37;19.17;;;7.63;;
20928;SDS011;21895;47.072;15.132;2022-12-18T10:01:22;21.00;;;8.40;;
20928;SDS011;21895;47.072;15.132;2022-12-18T10:03:53;19.33;;;7.40;;
20928;SDS011;21895;47.072;15.132;2022-12-18T10:10:42;23.07;;;7.20;;
20928;SDS011;21895;47.072;15.132;2022-12-18T10:13:42;27.63;;;10.60;;
20928;SDS011;21895;47.072;15.132;2022-12-18T10:16:35;24.60;;;10.27;;
20928;SDS011;21895;47.072;15.132;2022-12-18T10:20:49;34.50;;;11.77;;
20928;SDS011;21895;47.072;15.132;2022-12-18T10:29:59;34.07;;;10.77;;
20928;SDS011;21895;47.072;15.132;2022-12-18T10:32:38;33.13;;;12.00;;
20928;SDS011;21895;47.072;15.132;2022-12-18T10:35:08;30.53;;;10.83;;
20928;SDS011;21895;47.072;15.132;2022-12-18T10:38:04;27.57;;;10.53;;
20928;SDS011;21895;47.072;15.132;2022-12-18T10:41:00;20.30;;;8.00;;
20928;SDS011;21895;47.072;15.132;2022-12-18T10:43:38;20.37;;;7.73;;
20928;SDS011;21895;47.072;15.132;2022-12-18T10:46:16;17.07;;;7.30;;
20928;SDS011;21895;47.072;15.132;2022-12-18T10:48:55;20.33;;;7.33;;
20928;SDS011;21895;47.072;15.132;2022-12-18T10:51:27;17.03;;;6.63;;
20928;SDS011;21895;47.072;15.132;2022-12-18T10:54:04;15.63;;;6.53;;
20928;SDS011;21895;47.072;15.132;2022-12-18T10:57:14;18.23;;;6.97;;
20928;SDS011;21895;47.072;15.132;2022-12-18T11:02:26;16.57;;;6.40;;
20928;SDS011;21895;47.072;15.132;2022-12-18T11:05:02;18.87;;;6.60;;
20928;SDS011;21895;47.072;15.132;2022-12-18T11:07:58;15.80;;;6.87;;
20928;SDS011;21895;47.072;15.132;2022-12-18T11:10:28;18.33;;;7.63;;
20928;SDS011;21895;47.072;15.132;2022-12-18T11:18:19;22.70;;;6.63;;
20928;SDS011;21895;47.072;15.132;2022-12-18T11:20:56;21.30;;;8.20;;
20928;SDS011;21895;47.072;15.132;2022-12-18T11:23:37;25.47;;;8.57;;
20928;SDS011;21895;47.072;15.132;2022-12-18T11:26:17;21.87;;;8.47;;
20928;SDS011;21895;47.072;15.132;2022-12-18T11:28:51;20.73;;;8.57;;
20928;SDS011;21895;47.072;15.132;2022-12-18T11:31:35;22.40;;;9.17;;
20928;SDS011;21895;47.072;15.132;2022-12-18T11:34:16;26.10;;;10.00;;
20928;SDS011;21895;47.072;15.132;2022-12-18T11:36:57;24.83;;;9.20;;
20928;SDS011;21895;47.072;15.132;2022-12-18T11:39:36;26.30;;;9.87;;
20928;SDS011;21895;47.072;15.132;2022-12-18T11:42:24;27.43;;;10.03;;
20928;SDS011;21895;47.072;15.132;2022-12-18T11:48:20;31.33;;;11.23;;
20928;SDS011;21895;47.072;15.132;2022-12-18T11:50:53;31.73;;;11.80;;
20928;SDS011;21895;47.072;15.132;2022-12-18T11:53:23;39.60;;;12.17;;
20928;SDS011;21895;47.072;15.132;2022-12-18T12:02:34;33.23;;;10.50;;
20928;SDS011;21895;47.072;15.132;2022-12-18T12:06:59;34.47;;;12.80;;
20928;SDS011;21895;47.072;15.132;2022-12-18T12:10:46;37.80;;;12.00;;
20928;SDS011;21895;47.072;15.132;2022-12-18T12:14:07;32.23;;;11.90;;
20928;SDS011;21895;47.072;15.132;2022-12-18T12:17:05;37.40;;;13.77;;
20928;SDS011;21895;47.072;15.132;2022-12-18T12:20:15;37.30;;;12.77;;
20928;SDS011;21895;47.072;15.132;2022-12-18T12:23:04;42.50;;;14.83;;
20928;SDS011;21895;47.072;15.132;2022-12-18T12:29:41;39.93;;;13.73;;
20928;SDS011;21895;47.072;15.132;2022-12-18T12:32:45;40.23;;;12.97;;
20928;SDS011;21895;47.072;15.132;2022-12-18T12:37:36;48.97;;;13.30;;
20928;SDS011;21895;47.072;15.132;2022-12-18T12:43:21;39.73;;;11.70;;
20928;SDS011;21895;47.072;15.132;2022-12-18T12:46:17;35.57;;;12.83;;
20928;SDS011;21895;47.072;15.132;2022-12-18T12:48:49;36.77;;;13.63;;
20928;SDS011;21895;47.072;15.132;2022-12-18T12:51:32;39.93;;;13.83;;
20928;SDS011;21895;47.072;15.132;2022-12-18T12:54:14;39.90;;;13.67;;
20928;SDS011;21895;47.072;15.132;2022-12-18T12:56:57;39.33;;;12.83;;
20928;SDS011;21895;47.072;15.132;2022-12-18T13:00:15;35.87;;;12.13;;
20928;SDS011;21895;47.072;15.132;2022-12-18T13:08:26;34.53;;;12.27;;
20928;SDS011;21895;47.072;15.132;2022-12-18T13:11:00;50.27;;;14.90;;
20928;SDS011;21895;47.072;15.132;2022-12-18T13:16:25;37.73;;;13.23;;
20928;SDS011;21895;47.072;15.132;2022-12-18T13:18:55;36.20;;;13.17;;
20928;SDS011;21895;47.072;15.132;2022-12-18T13:21:27;43.20;;;14.10;;
20928;SDS011;21895;47.072;15.132;2022-12-18T13:26:56;38.67;;;13.97;;
20928;SDS011;21895;47.072;15.132;2022-12-18T13:29:41;43.13;;;14.17;;
20928;SDS011;21895;47.072;15.132;2022-12-18T13:32:24;40.80;;;13.90;;
20928;SDS011;21895;47.072;15.132;2022-12-18T13:35:34;40.17;;;13.40;;
20928;SDS011;21895;47.072;15.132;2022-12-18T13:38:19;46.70;;;14.17;;
20928;SDS011;21895;47.072;15.132;2022-12-18T13:41:02;38.70;;;13.20;;
20928;SDS011;21895;47.072;15.132;2022-12-18T13:52:33;38.70;;;14.33;;
20928;SDS011;21895;47.072;15.132;2022-12-18T13:55:06;40.40;;;13.70;;
20928;SDS011;21895;47.072;15.132;2022-12-18T13:57:43;36.87;;;13.83;;
20928;SDS011;21895;47.072;15.132;2022-12-18T14:00:26;45.73;;;15.60;;
20928;SDS011;21895;47.072;15.132;2022-12-18T14:02:56;41.73;;;13.27;;
20928;SDS011;21895;47.072;15.132;2022-12-18T14:05:29;41.57;;;14.27;;
20928;SDS011;21895;47.072;15.132;2022-12-18T14:08:06;40.00;;;13.77;;
20928;SDS011;21895;47.072;15.132;2022-12-18T14:10:41;42.97;;;14.30;;
20928;SDS011;21895;47.072;15.132;2022-12-18T14:13:20;36.10;;;13.73;;
20928;SDS011;21895;47.072;15.132;2022-12-18T14:15:58;36.93;;;13.97;;
20928;SDS011;21895;47.072;15.132;2022-12-18T14:18:41;40.27;;;13.20;;
20928;SDS011;21895;47.072;15.132;2022-12-18T14:21:32;38.07;;;13.37;;
20928;SDS011;21895;47.072;15.132;2022-12-18T14:24:14;40.80;;;15.27;;
20928;SDS011;21895;47.072;15.132;2022-12-18T14:26:45;45.77;;;14.20;;
20928;SDS011;21895;47.072;15.132;2022-12-18T14:29:28;43.10;;;15.77;;
20928;SDS011;21895;47.072;15.132;2022-12-18T14:32:06;41.70;;;14.87;;
20928;SDS011;21895;47.072;15.132;2022-12-18T14:34:45;43.30;;;14.73;;
20928;SDS011;21895;47.072;15.132;2022-12-18T14:37:20;46.03;;;15.07;;
20928;SDS011;21895;47.072;15.132;2022-12-18T14:39:54;49.53;;;15.73;;
20928;SDS011;21895;47.072;15.132;2022-12-18T14:42:36;38.23;;;15.07;;
20928;SDS011;21895;47.072;15.132;2022-12-18T14:48:09;36.63;;;13.50;;
20928;SDS011;21895;47.072;15.132;2022-12-18T14:51:22;38.20;;;14.47;;
20928;SDS011;21895;47.072;15.132;2022-12-18T14:53:55;41.97;;;15.03;;
20928;SDS011;21895;47.072;15.132;2022-12-18T14:56:34;40.27;;;13.47;;
20928;SDS011;21895;47.072;15.132;2022-12-18T14:59:27;34.10;;;14.27;;
20928;SDS011;21895;47.072;15.132;2022-12-18T15:02:03;40.73;;;15.83;;
20928;SDS011;21895;47.072;15.132;2022-12-18T15:04:46;37.77;;;13.63;;
20928;SDS011;21895;47.072;15.132;2022-12-18T15:07:23;42.97;;;15.60;;
20928;SDS011;21895;47.072;15.132;2022-12-18T15:13:06;42.63;;;14.90;;
20928;SDS011;21895;47.072;15.132;2022-12-18T15:15:45;41.97;;;14.97;;
20928;SDS011;21895;47.072;15.132;2022-12-18T15:18:14;36.93;;;14.70;;
20928;SDS011;21895;47.072;15.132;2022-12-18T15:20:46;41.10;;;14.83;;
20928;SDS011;21895;47.072;15.132;2022-12-18T15:23:28;44.40;;;13.93;;
20928;SDS011;21895;47.072;15.132;2022-12-18T15:26:30;36.23;;;12.97;;
20928;SDS011;21895;47.072;15.132;2022-12-18T15:29:04;41.73;;;14.80;;
20928;SDS011;21895;47.072;15.132;2022-12-18T15:31:31;41.30;;;13.57;;
20928;SDS011;21895;47.072;15.132;2022-12-18T15:34:22;40.13;;;13.93;;
20928;SDS011;21895;47.072;15.132;2022-12-18T15:36:50;42.07;;;14.00;;
20928;SDS011;21895;47.072;15.132;2022-12-18T15:39:17;37.27;;;13.47;;
20928;SDS011;21895;47.072;15.132;2022-12-18T15:41:44;40.60;;;13.93;;
20928;SDS011;21895;47.072;15.132;2022-12-18T15:44:29;38.67;;;13.57;;
20928;SDS011;21895;47.072;15.132;2022-12-18T15:46:56;37.50;;;14.37;;
20928;SDS011;21895;47.072;15.132;2022-12-18T15:49:23;47.53;;;14.97;;
20928;SDS011;21895;47.072;15.132;2022-12-18T15:51:51;44.93;;;16.00;;
20928;SDS011;21895;47.072;15.132;2022-12-18T15:54:22;51.53;;;15.83;;
20928;SDS011;21895;47.072;15.132;2022-12-18T15:58:51;43.53;;;13.37;;
20928;SDS011;21895;47.072;15.132;2022-12-18T16:01:18;41.40;;;15.03;;
20928;SDS011;21895;47.072;15.132;2022-12-18T16:03:46;39.73;;;14.03;;
20928;SDS011;21895;47.072;15.132;2022-12-18T16:06:12;39.57;;;15.40;;
20928;SDS011;21895;47.072;15.132;2022-12-18T16:08:39;41.37;;;14.70;;
20928;SDS011;21895;47.072;15.132;2022-12-18T16:11:09;42.00;;;15.83;;
20928;SDS011;21895;47.072;15.132;2022-12-18T16:14:26;44.13;;;15.43;;
20928;SDS011;21895;47.072;15.132;2022-12-18T16:16:58;43.80;;;14.67;;
20928;SDS011;21895;47.072;15.132;2022-12-18T16:19:28;46.50;;;15.47;;
20928;SDS011;21895;47.072;15.132;2022-12-18T16:21:55;46.07;;;15.87;;
20928;SDS011;21895;47.072;15.132;2022-12-18T16:24:25;41.37;;;15.30;;
20928;SDS011;21895;47.072;15.132;2022-12-18T16:26:55;46.13;;;14.47;;
20928;SDS011;21895;47.072;15.132;2022-12-18T16:29:26;47.13;;;16.73;;
20928;SDS011;21895;47.072;15.132;2022-12-18T16:31:58;49.27;;;17.50;;
20928;SDS011;21895;47.072;15.132;2022-12-18T16:34:32;49.93;;;17.47;;
20928;SDS011;21895;47.072;15.132;2022-12-18T16:37:02;55.37;;;19.47;;
20928;SDS011;21895;47.072;15.132;2022-12-18T16:39:35;50.30;;;17.63;;
20928;SDS011;21895;47.072;15.132;2022-12-18T16:42:04;42.37;;;16.77;;